Time;durP1;ratioP1;P1;durP2;ratioP2;P2;SDS_P1;SDS_P2;PMS_P1;PMS_P2;Temp;Humidity;BMP_temperature;BMP_pressure;BME280_temperature;BME280_humidity;BME280_pressure;Samples;Min_cycle;Max_cycle;Signal;HPM_P1;HPM_P2
2022/09/20 00:00:27;;;;;;;69.32;50.20;;;19.50;61.30;;;;;;4973498;28;91261;-59
2022/09/20 00:02:53;;;;;;;68.90;50.38;;;19.40;61.20;;;;;;4964868;28;90958;-59
2022/09/20 00:05:18;;;;;;;68.68;50.15;;;19.50;61.10;;;;;;4966195;28;91528;-59
2022/09/20 00:07:44;;;;;;;68.45;50.05;;;19.40;61.20;;;;;;4968971;28;89990;-59
2022/09/20 00:10:10;;;;;;;69.28;50.20;;;19.50;61.20;;;;;;4956218;28;91818;-59
2022/09/20 00:12:36;;;;;;;68.53;49.85;;;19.50;61.00;;;;;;4957892;28;90248;-59
2022/09/20 00:15:03;;;;;;;69.43;50.22;;;19.40;61.10;;;;;;4958813;28;92345;-59
2022/09/20 00:17:28;;;;;;;69.95;50.83;;;19.40;61.10;;;;;;4962665;28;89986;-59
2022/09/20 00:19:54;;;;;;;68.40;50.15;;;19.40;61.30;;;;;;4960947;28;90714;-59
2022/09/20 00:22:20;;;;;;;68.57;50.25;;;19.30;61.20;;;;;;4966669;28;90156;-59
2022/09/20 00:24:46;;;;;;;69.40;50.28;;;19.30;61.50;;;;;;4962917;28;90958;-59
2022/09/20 00:27:12;;;;;;;68.63;50.35;;;19.20;61.70;;;;;;4964554;28;93642;-58
2022/09/20 00:29:37;;;;;;;68.15;49.92;;;19.30;61.50;;;;;;4965423;28;89704;-59
2022/09/20 00:32:03;;;;;;;69.75;49.78;;;19.30;61.50;;;;;;4953590;28;90043;-59
2022/09/20 00:37:13;;;;;;;68.47;49.85;;;19.30;61.20;;;;;;4964705;28;89545;-58
2022/09/20 00:39:39;;;;;;;69.38;49.90;;;19.30;61.40;;;;;;4965424;28;91276;-60
2022/09/20 00:42:05;;;;;;;68.43;49.85;;;19.30;61.10;;;;;;4966593;28;91892;-59
2022/09/20 00:44:39;;;;;;;68.25;50.10;;;19.30;61.30;;;;;;4957375;28;90623;-59
2022/09/20 00:47:08;;;;;;;68.45;49.95;;;19.30;61.30;;;;;;4963709;28;91305;-59
2022/09/20 00:49:36;;;;;;;69.15;50.22;;;19.20;61.30;;;;;;4964410;28;90073;-59
2022/09/20 00:52:02;;;;;;;68.68;50.25;;;19.20;61.40;;;;;;4954532;28;90653;-59
2022/09/20 00:54:30;;;;;;;68.05;50.25;;;19.20;61.60;;;;;;4954935;28;90325;-59
2022/09/20 00:56:56;;;;;;;68.60;49.88;;;19.10;61.60;;;;;;4973585;28;90090;-59
2022/09/20 00:59:31;;;;;;;68.13;50.05;;;19.10;61.60;;;;;;4964651;28;94145;-60
2022/09/20 01:02:20;;;;;;;67.70;49.92;;;19.10;61.40;;;;;;4962052;28;90519;-58
2022/09/20 01:04:47;;;;;;;67.13;49.83;;;19.10;61.50;;;;;;4971012;28;91373;-59
2022/09/20 01:07:16;;;;;;;68.63;50.05;;;19.10;61.50;;;;;;4960941;28;90742;-58
2022/09/20 01:09:41;;;;;;;67.57;50.00;;;19.10;61.60;;;;;;4950794;28;90698;-59
2022/09/20 01:12:15;;;;;;;69.28;49.95;;;19.10;61.50;;;;;;4963299;28;90277;-59
2022/09/20 01:14:44;;;;;;;68.22;49.85;;;19.10;61.50;;;;;;4957419;28;92392;-60
2022/09/20 01:17:11;;;;;;;67.22;49.60;;;19.10;61.60;;;;;;4963076;28;91640;-59
2022/09/20 01:19:58;;;;;;;68.65;50.25;;;19.10;61.60;;;;;;4962709;28;89906;-59
2022/09/20 01:22:57;;;;;;;68.57;50.38;;;19.10;61.50;;;;;;4968125;28;89551;-59
2022/09/20 01:25:58;;;;;;;68.47;49.88;;;19.10;61.50;;;;;;4961737;28;90323;-59
2022/09/20 01:28:25;;;;;;;67.57;49.85;;;19.00;61.40;;;;;;4960847;28;90922;-59
2022/09/20 01:31:12;;;;;;;68.88;50.05;;;19.00;61.50;;;;;;4959712;28;91671;-59
2022/09/20 01:33:43;;;;;;;68.45;50.10;;;19.00;61.70;;;;;;4958317;28;91863;-59
2022/09/20 01:36:12;;;;;;;68.03;50.00;;;19.00;61.70;;;;;;4964371;28;91293;-59
2022/09/20 01:39:00;;;;;;;67.90;49.70;;;19.00;61.50;;;;;;4962412;28;90168;-59
2022/09/20 01:41:47;;;;;;;67.45;49.83;;;19.00;61.40;;;;;;4957793;28;90635;-59
2022/09/20 01:44:36;;;;;;;68.15;49.70;;;19.00;61.10;;;;;;4954930;28;90526;-59
2022/09/20 01:47:37;;;;;;;67.57;49.72;;;19.00;61.30;;;;;;4954686;28;89585;-60
2022/09/20 01:50:34;;;;;;;68.10;49.88;;;19.00;61.20;;;;;;4964491;28;89792;-61
2022/09/20 01:53:21;;;;;;;68.28;49.95;;;19.00;61.20;;;;;;4967288;28;90084;-61
2022/09/20 01:56:25;;;;;;;67.47;49.92;;;18.90;61.40;;;;;;4963861;28;92422;-61
2022/09/20 01:59:23;;;;;;;67.55;49.85;;;19.00;61.40;;;;;;4971387;28;92618;-61
2022/09/20 02:02:07;;;;;;;67.32;49.88;;;18.90;61.50;;;;;;4957370;28;93135;-61
2022/09/20 02:04:32;;;;;;;68.07;50.03;;;18.90;61.30;;;;;;4957092;28;95597;-59
2022/09/20 02:07:06;;;;;;;68.78;50.00;;;18.90;61.30;;;;;;4965788;28;93515;-60
2022/09/20 02:10:25;;;;;;;68.20;49.88;;;18.90;61.50;;;;;;4964572;28;92673;-60
2022/09/20 02:12:57;;;;;;;67.72;49.72;;;18.90;61.60;;;;;;4931672;28;90310;-60
2022/09/20 02:15:23;;;;;;;66.82;49.55;;;18.90;61.20;;;;;;4973487;28;91698;-61
2022/09/20 02:18:10;;;;;;;66.93;49.75;;;18.90;61.20;;;;;;4973351;28;89865;-61
2022/09/20 02:21:04;;;;;;;67.32;49.92;;;18.90;61.30;;;;;;4965481;28;92254;-61
2022/09/20 02:23:33;;;;;;;67.68;49.67;;;18.90;61.00;;;;;;4963274;28;91415;-61
2022/09/20 02:26:23;;;;;;;67.32;49.55;;;18.90;61.30;;;;;;4965307;28;92247;-60
2022/09/20 02:29:00;;;;;;;68.13;49.95;;;18.90;61.20;;;;;;4953721;28;89724;-60
2022/09/20 02:31:53;;;;;;;68.40;49.95;;;18.90;61.20;;;;;;4962283;28;90513;-61
2022/09/20 02:35:04;;;;;;;68.47;50.25;;;18.90;61.30;;;;;;4962737;28;92114;-61
2022/09/20 02:37:57;;;;;;;68.15;49.55;;;18.90;61.10;;;;;;4954081;28;89907;-61
2022/09/20 02:40:45;;;;;;;67.25;49.75;;;18.90;61.20;;;;;;4968027;28;90122;-61
2022/09/20 02:43:16;;;;;;;68.38;49.92;;;18.90;61.00;;;;;;4964563;28;89965;-60
2022/09/20 02:46:16;;;;;;;67.40;49.97;;;18.90;61.00;;;;;;4956624;28;90011;-60
2022/09/20 02:49:08;;;;;;;66.68;49.58;;;18.90;61.00;;;;;;4971921;28;90530;-61
2022/09/20 02:51:41;;;;;;;68.53;50.03;;;18.90;61.00;;;;;;4965671;28;90030;-59
2022/09/20 02:54:41;;;;;;;67.55;49.92;;;18.80;61.10;;;;;;4971032;28;92594;-61
2022/09/20 02:57:18;;;;;;;66.90;49.75;;;18.90;60.90;;;;;;4957318;28;90507;-61
2022/09/20 03:00:00;;;;;;;66.82;49.58;;;18.90;60.60;;;;;;4960672;28;89726;-61
2022/09/20 03:02:42;;;;;;;68.00;50.00;;;18.90;60.90;;;;;;4951201;28;89738;-60
2022/09/20 03:05:40;;;;;;;68.10;49.90;;;18.80;60.90;;;;;;4961185;28;92947;-59
2022/09/20 03:08:31;;;;;;;67.22;49.80;;;18.90;60.60;;;;;;4958918;28;90113;-60
2022/09/20 03:11:30;;;;;;;67.20;49.75;;;18.90;60.70;;;;;;4957165;28;90189;-60
2022/09/20 03:14:12;;;;;;;67.78;49.88;;;18.80;60.80;;;;;;4973556;28;89700;-60
2022/09/20 03:16:55;;;;;;;68.10;49.65;;;18.90;60.70;;;;;;4954351;28;90394;-60
2022/09/20 03:19:51;;;;;;;67.20;50.05;;;18.90;60.70;;;;;;4960412;28;91076;-61
2022/09/20 03:22:40;;;;;;;68.25;49.88;;;18.90;60.50;;;;;;4966158;28;91443;-59
2022/09/20 03:25:48;;;;;;;66.80;49.88;;;18.90;60.60;;;;;;4960389;28;89885;-60
2022/09/20 03:28:41;;;;;;;67.20;49.80;;;18.80;60.70;;;;;;4955099;28;92158;-59
2022/09/20 03:31:46;;;;;;;67.03;49.97;;;18.90;60.50;;;;;;4959069;28;93446;-60
2022/09/20 03:34:33;;;;;;;67.47;49.85;;;18.90;60.40;;;;;;4958435;28;90475;-60
2022/09/20 03:37:01;;;;;;;70.82;49.88;;;19.00;60.10;;;;;;4965394;28;93286;-60
2022/09/20 03:39:37;;;;;;;66.95;49.65;;;19.00;60.30;;;;;;4962541;28;91552;-60
2022/09/20 03:42:05;;;;;;;67.38;49.85;;;19.00;60.00;;;;;;4959260;28;92383;-60
2022/09/20 03:44:42;;;;;;;67.18;49.97;;;19.00;60.00;;;;;;4965892;28;89857;-61
2022/09/20 03:47:46;;;;;;;68.00;49.80;;;18.90;60.10;;;;;;4966256;28;91164;-59
2022/09/20 03:50:30;;;;;;;69.78;49.63;;;19.00;60.10;;;;;;4923814;28;91682;-61
2022/09/20 03:53:29;;;;;;;67.18;49.90;;;19.10;59.60;;;;;;4955882;28;91480;-61
2022/09/20 03:56:22;;;;;;;67.47;50.03;;;19.10;59.70;;;;;;4963321;28;90019;-60
2022/09/20 03:59:06;;;;;;;67.32;49.58;;;19.10;59.70;;;;;;4967360;28;90420;-61
2022/09/20 04:01:46;;;;;;;67.35;49.85;;;19.00;59.70;;;;;;4950938;28;89601;-60
2022/09/20 04:04:24;;;;;;;68.93;50.10;;;19.00;59.80;;;;;;4957572;28;90246;-60
2022/09/20 04:07:00;;;;;;;66.65;49.65;;;19.10;59.70;;;;;;4961607;28;90143;-59
2022/09/20 04:09:28;;;;;;;67.93;49.65;;;19.20;59.60;;;;;;4966777;28;88992;-60
2022/09/20 04:12:27;;;;;;;66.60;49.65;;;19.10;59.60;;;;;;4958975;28;89644;-59
2022/09/20 04:15:05;;;;;;;66.72;49.63;;;19.10;59.50;;;;;;4955807;28;93150;-60
2022/09/20 04:17:41;;;;;;;67.95;49.58;;;19.10;59.40;;;;;;4956409;28;91064;-59
2022/09/20 04:20:30;;;;;;;67.88;49.92;;;19.00;59.60;;;;;;4954954;28;93229;-60
2022/09/20 04:23:04;;;;;;;70.22;50.05;;;18.90;59.90;;;;;;4960869;28;90010;-60
2022/09/20 04:25:39;;;;;;;67.40;49.80;;;19.10;59.70;;;;;;4962788;28;95141;-60
2022/09/20 04:28:18;;;;;;;66.95;50.22;;;19.10;59.70;;;;;;4962264;28;89969;-61
2022/09/20 04:30:45;;;;;;;67.78;49.97;;;19.20;59.40;;;;;;4960195;28;90247;-60
2022/09/20 04:33:22;;;;;;;68.22;49.92;;;19.00;59.60;;;;;;4959673;28;91717;-61
2022/09/20 04:39:08;;;;;;;69.10;49.95;;;19.00;59.80;;;;;;4957882;28;90539;-61
2022/09/20 04:42:01;;;;;;;69.72;50.15;;;18.90;60.90;;;;;;4972286;28;91051;-61
2022/09/20 04:44:39;;;;;;;71.20;50.67;;;18.90;61.30;;;;;;4957802;28;92133;-60
2022/09/20 04:47:52;;;;;;;70.22;49.78;;;18.90;61.80;;;;;;4966089;28;92622;-62
2022/09/20 04:50:51;;;;;;;70.35;50.42;;;19.00;61.20;;;;;;4957940;28;90063;-61
2022/09/20 04:53:35;;;;;;;71.03;50.13;;;19.10;61.70;;;;;;4964439;28;89991;-61
2022/09/20 04:56:18;;;;;;;71.57;50.45;;;19.00;61.40;;;;;;4963407;28;91973;-61
2022/09/20 04:58:59;;;;;;;72.03;50.58;;;19.00;61.50;;;;;;4969050;28;89867;-60
2022/09/20 05:02:06;;;;;;;77.95;51.30;;;19.00;61.80;;;;;;4967965;28;90240;-61
2022/09/20 05:05:15;;;;;;;71.53;50.33;;;18.90;61.90;;;;;;4906667;28;91339;-60
2022/09/20 05:08:13;;;;;;;71.90;50.78;;;18.90;62.20;;;;;;4899537;28;90828;-60
2022/09/20 05:11:07;;;;;;;72.68;50.42;;;18.90;62.50;;;;;;4962573;28;90208;-60
2022/09/20 05:13:45;;;;;;;72.82;50.63;;;18.80;62.20;;;;;;4962600;28;91091;-61
2022/09/20 05:16:19;;;;;;;75.68;51.65;;;18.70;62.70;;;;;;4966701;28;90391;-60
2022/09/20 05:19:12;;;;;;;82.10;52.55;;;18.70;62.80;;;;;;4965462;28;90255;-61
2022/09/20 05:21:47;;;;;;;81.82;52.85;;;18.80;62.60;;;;;;4968761;28;89905;-61
2022/09/20 05:24:39;;;;;;;75.32;51.45;;;18.90;62.20;;;;;;4962397;28;91992;-61
2022/09/20 05:27:35;;;;;;;74.97;51.67;;;19.00;61.70;;;;;;4962510;28;90073;-59
2022/09/20 05:30:29;;;;;;;78.38;51.40;;;19.00;61.60;;;;;;4962129;28;91450;-60
2022/09/20 05:33:11;;;;;;;79.75;51.70;;;18.90;61.80;;;;;;4957932;28;90352;-61
2022/09/20 05:35:55;;;;;;;73.30;51.67;;;18.90;61.70;;;;;;4963557;28;90414;-60
2022/09/20 05:38:42;;;;;;;71.78;51.13;;;18.90;61.70;;;;;;4974642;28;90300;-60
2022/09/20 05:41:32;;;;;;;72.45;51.38;;;19.00;61.30;;;;;;4965498;28;91115;-59
2022/09/20 05:44:25;;;;;;;72.70;51.20;;;18.90;61.20;;;;;;4981737;28;89790;-61
2022/09/20 05:47:23;;;;;;;70.82;50.75;;;18.90;61.30;;;;;;4966704;28;90922;-60
2022/09/20 05:50:14;;;;;;;72.45;50.83;;;19.00;61.00;;;;;;4973146;28;90256;-60
2022/09/20 05:53:21;;;;;;;73.78;50.90;;;19.10;60.70;;;;;;4971111;28;91377;-60
2022/09/20 05:56:21;;;;;;;71.88;51.17;;;19.10;60.40;;;;;;4958823;28;92068;-59
2022/09/20 05:58:58;;;;;;;71.03;50.65;;;19.10;60.30;;;;;;4963591;28;89855;-59
2022/09/20 06:01:44;;;;;;;73.85;51.03;;;19.00;60.40;;;;;;4962351;28;90802;-59
2022/09/20 06:04:21;;;;;;;71.07;50.80;;;19.10;60.40;;;;;;4970415;28;94485;-59
2022/09/20 06:07:09;;;;;;;71.85;50.63;;;19.00;60.50;;;;;;4976235;28;89937;-58
2022/09/20 06:09:59;;;;;;;71.90;50.90;;;19.00;60.80;;;;;;4969508;28;92098;-58
2022/09/20 06:12:44;;;;;;;71.70;50.75;;;19.10;60.40;;;;;;4964422;28;92186;-59
2022/09/20 06:15:20;;;;;;;70.05;50.70;;;19.10;60.10;;;;;;4968854;28;95454;-59
2022/09/20 06:18:04;;;;;;;72.13;50.75;;;19.10;60.40;;;;;;4964103;28;90631;-59
2022/09/20 06:20:43;;;;;;;71.93;50.72;;;18.90;60.40;;;;;;4958557;28;90178;-59
2022/09/20 06:23:09;;;;;;;71.25;50.85;;;18.90;60.60;;;;;;4968003;28;89605;-60
2022/09/20 06:25:47;;;;;;;69.70;50.55;;;19.00;60.30;;;;;;4971560;28;90892;-60
2022/09/20 06:28:17;;;;;;;71.38;50.72;;;19.00;60.20;;;;;;4967570;28;89001;-59
2022/09/20 06:30:48;;;;;;;69.38;50.83;;;19.00;60.20;;;;;;4963177;28;92595;-59
2022/09/20 06:33:21;;;;;;;71.47;50.78;;;19.00;60.20;;;;;;4968410;28;90420;-59
2022/09/20 06:35:50;;;;;;;72.00;50.95;;;19.10;60.10;;;;;;4966749;28;93384;-59
2022/09/20 06:41:27;;;;;;;70.70;50.67;;;19.10;60.10;;;;;;4970636;28;90534;-59
2022/09/20 06:43:57;;;;;;;71.80;50.67;;;19.10;60.10;;;;;;4961863;28;90026;-59
2022/09/20 06:46:30;;;;;;;69.90;50.70;;;19.00;60.00;;;;;;4970625;28;90603;-58
2022/09/20 06:48:56;;;;;;;70.28;50.75;;;19.00;60.20;;;;;;4968773;28;91608;-59
2022/09/20 06:51:24;;;;;;;71.63;51.20;;;19.00;60.30;;;;;;4966263;28;90148;-59
2022/09/20 06:53:51;;;;;;;70.25;50.88;;;19.10;60.00;;;;;;4963762;28;89177;-59
2022/09/20 06:56:25;;;;;;;72.03;50.38;;;19.10;60.00;;;;;;4966548;28;91992;-59
2022/09/20 06:58:51;;;;;;;70.53;50.80;;;19.10;59.90;;;;;;4974437;28;89912;-59
2022/09/20 07:01:18;;;;;;;69.15;50.67;;;19.00;60.00;;;;;;4965496;28;90558;-60
2022/09/20 07:03:44;;;;;;;69.13;50.35;;;18.90;60.30;;;;;;4966597;28;90233;-61
2022/09/20 07:06:10;;;;;;;69.05;50.30;;;19.00;60.20;;;;;;4962919;28;90508;-59
2022/09/20 07:08:37;;;;;;;70.90;50.40;;;19.00;60.20;;;;;;4971161;28;89859;-57
2022/09/20 07:11:10;;;;;;;73.28;50.58;;;19.00;60.20;;;;;;4961213;28;90292;-59
2022/09/20 07:13:36;;;;;;;70.38;50.42;;;19.00;60.30;;;;;;4962797;28;92104;-59
2022/09/20 07:16:04;;;;;;;72.50;50.75;;;18.90;60.40;;;;;;4966460;28;90262;-59
2022/09/20 07:18:30;;;;;;;70.15;50.90;;;19.00;60.20;;;;;;4962137;28;91209;-59
2022/09/20 07:20:57;;;;;;;70.65;50.90;;;19.00;60.30;;;;;;4966828;28;89916;-59
2022/09/20 07:23:24;;;;;;;70.28;51.15;;;19.00;60.40;;;;;;4968668;28;89573;-59
2022/09/20 07:25:50;;;;;;;69.30;50.33;;;19.00;60.10;;;;;;4969546;28;92479;-60
2022/09/20 07:28:19;;;;;;;69.68;50.80;;;19.00;60.20;;;;;;4962343;28;90869;-59
2022/09/20 07:30:46;;;;;;;70.75;50.67;;;19.00;60.00;;;;;;4972703;28;91780;-58
2022/09/20 07:33:18;;;;;;;70.65;50.72;;;19.00;60.20;;;;;;4974389;28;89977;-59
2022/09/20 07:35:45;;;;;;;70.63;51.05;;;19.00;60.20;;;;;;4973701;28;90081;-59
2022/09/20 07:38:11;;;;;;;68.68;50.50;;;19.10;60.20;;;;;;4972979;28;90108;-59
2022/09/20 07:40:37;;;;;;;69.63;50.65;;;19.20;60.00;;;;;;4956857;28;90537;-59
2022/09/20 07:43:02;;;;;;;72.03;51.25;;;19.10;60.00;;;;;;4968542;28;90033;-59
2022/09/20 07:45:30;;;;;;;71.53;50.83;;;19.10;60.10;;;;;;4964695;28;91155;-59
2022/09/20 07:47:58;;;;;;;69.28;50.30;;;19.20;60.00;;;;;;4963533;28;91332;-59
2022/09/20 07:50:24;;;;;;;70.90;50.35;;;19.30;59.80;;;;;;4967768;28;91278;-58
2022/09/20 07:52:50;;;;;;;73.15;51.10;;;19.20;59.70;;;;;;4966506;28;89830;-59
2022/09/20 07:55:16;;;;;;;69.90;50.85;;;19.30;59.70;;;;;;4955749;28;90719;-59
2022/09/20 07:57:42;;;;;;;69.20;50.40;;;19.30;59.40;;;;;;4963779;28;90809;-59
2022/09/20 08:00:08;;;;;;;69.90;50.72;;;19.30;59.40;;;;;;4970477;28;90233;-59
2022/09/20 08:02:35;;;;;;;68.30;50.25;;;19.30;59.40;;;;;;4962769;28;90448;-58
2022/09/20 08:05:01;;;;;;;69.35;50.83;;;19.30;59.80;;;;;;4974193;28;90710;-59
2022/09/20 08:07:28;;;;;;;69.47;50.22;;;19.30;59.70;;;;;;4963454;28;90725;-59
2022/09/20 08:09:53;;;;;;;70.10;50.58;;;19.20;59.70;;;;;;4969404;28;90099;-59
2022/09/20 08:12:19;;;;;;;70.05;50.80;;;19.20;59.70;;;;;;4967637;28;89948;-59
2022/09/20 08:14:45;;;;;;;68.63;50.35;;;19.30;59.70;;;;;;4964698;28;96180;-58
2022/09/20 08:17:10;;;;;;;69.90;50.85;;;19.30;59.80;;;;;;4967873;28;91716;-59
2022/09/20 08:19:38;;;;;;;69.93;50.30;;;19.20;60.00;;;;;;4972097;28;89747;-59
2022/09/20 08:22:05;;;;;;;69.45;50.30;;;19.30;60.00;;;;;;4967839;28;91062;-59
2022/09/20 08:24:31;;;;;;;69.93;50.55;;;19.30;60.00;;;;;;4963224;28;91510;-59
2022/09/20 08:26:58;;;;;;;69.00;50.35;;;19.30;60.00;;;;;;4974486;28;90397;-59
2022/09/20 08:29:24;;;;;;;68.90;50.50;;;19.30;60.00;;;;;;4965553;28;90154;-59
2022/09/20 08:31:51;;;;;;;73.32;50.40;;;19.30;59.90;;;;;;4954313;28;89366;-59
2022/09/20 08:34:17;;;;;;;68.15;50.15;;;19.40;59.80;;;;;;4969345;28;90838;-58
2022/09/20 08:36:45;;;;;;;71.53;50.47;;;19.40;59.70;;;;;;4963443;28;92957;-59
2022/09/20 08:39:12;;;;;;;70.57;50.70;;;19.40;59.70;;;;;;4964101;28;91356;-60
2022/09/20 08:41:49;;;;;;;68.88;50.03;;;19.50;59.70;;;;;;4962482;28;89920;-58
2022/09/20 08:44:24;;;;;;;70.20;50.10;;;19.50;59.30;;;;;;4963534;28;91222;-58
2022/09/20 08:47:01;;;;;;;68.82;50.50;;;19.50;59.20;;;;;;4967519;28;89963;-59
2022/09/20 08:49:28;;;;;;;69.85;50.53;;;19.50;59.50;;;;;;4961474;28;92354;-59
2022/09/20 08:51:57;;;;;;;70.63;50.25;;;19.50;59.40;;;;;;4966051;28;90493;-59
2022/09/20 08:54:24;;;;;;;70.93;50.42;;;19.60;59.40;;;;;;4960606;28;96285;-59
2022/09/20 08:56:51;;;;;;;70.43;50.70;;;19.60;59.50;;;;;;4955506;28;95013;-59
2022/09/20 08:59:19;;;;;;;69.53;50.38;;;19.60;59.30;;;;;;4966944;28;94765;-59
2022/09/20 09:01:47;;;;;;;70.25;50.53;;;19.60;59.10;;;;;;4955089;28;97951;-59
2022/09/20 09:04:20;;;;;;;70.07;50.63;;;19.60;59.40;;;;;;4952547;28;98441;-59
2022/09/20 09:06:47;;;;;;;69.60;50.63;;;19.60;59.40;;;;;;4949066;28;95997;-59
2022/09/20 09:09:26;;;;;;;69.75;50.58;;;19.70;59.20;;;;;;4964853;28;94880;-59
2022/09/20 09:11:54;;;;;;;68.63;50.35;;;19.80;59.10;;;;;;4958138;28;95063;-59
2022/09/20 09:17:18;;;;;;;71.13;50.75;;;19.90;58.70;;;;;;4967019;28;95387;-59
2022/09/20 09:19:43;;;;;;;71.57;50.55;;;19.90;58.90;;;;;;4959039;28;96079;-59
2022/09/20 09:22:09;;;;;;;69.63;50.25;;;19.90;58.80;;;;;;4964194;28;95329;-59
2022/09/20 09:24:35;;;;;;;69.40;50.72;;;19.90;58.70;;;;;;4968083;28;94937;-59
2022/09/20 09:27:19;;;;;;;69.65;50.45;;;19.90;58.70;;;;;;4962202;28;98553;-59
2022/09/20 09:29:51;;;;;;;69.50;50.67;;;20.00;58.70;;;;;;4968698;28;96021;-59
2022/09/20 09:32:23;;;;;;;70.50;50.47;;;20.00;58.60;;;;;;4959255;28;95274;-58
2022/09/20 09:34:50;;;;;;;70.72;50.67;;;20.00;58.50;;;;;;4960304;28;96727;-58
2022/09/20 09:37:29;;;;;;;69.72;50.50;;;20.10;58.60;;;;;;4965348;28;95592;-59
2022/09/20 09:40:26;;;;;;;70.35;50.80;;;20.10;58.50;;;;;;4964229;28;94866;-59
2022/09/20 09:42:57;;;;;;;70.25;50.50;;;20.10;58.40;;;;;;4959586;28;95312;-58
2022/09/20 09:45:35;;;;;;;72.05;50.50;;;20.10;58.30;;;;;;4958139;28;96789;-59
2022/09/20 09:48:01;;;;;;;70.43;50.85;;;20.20;58.30;;;;;;4961802;28;94747;-59
2022/09/20 09:50:32;;;;;;;70.13;50.38;;;20.20;58.40;;;;;;4959931;28;95317;-59
2022/09/20 09:53:08;;;;;;;70.22;50.63;;;20.10;58.30;;;;;;4962318;28;95081;-59
2022/09/20 09:56:09;;;;;;;70.90;50.60;;;20.20;58.40;;;;;;4963462;28;96266;-59
2022/09/20 09:58:44;;;;;;;69.95;50.53;;;20.20;58.20;;;;;;4944449;28;96627;-59
2022/09/20 10:01:25;;;;;;;71.22;50.88;;;20.20;58.30;;;;;;4965963;28;96356;-59
2022/09/20 10:04:22;;;;;;;69.72;50.63;;;20.20;58.30;;;;;;4960529;28;94756;-60
2022/09/20 10:07:03;;;;;;;70.20;50.42;;;20.20;58.30;;;;;;4959298;28;95597;-59
2022/09/20 10:09:55;;;;;;;70.78;50.85;;;20.20;58.30;;;;;;4960728;28;96396;-59
2022/09/20 10:12:39;;;;;;;71.28;51.17;;;20.30;58.30;;;;;;4964261;28;95208;-59
2022/09/20 10:15:11;;;;;;;70.13;51.05;;;20.30;58.20;;;;;;4962637;28;94267;-59
2022/09/20 10:17:42;;;;;;;;;;;20.30;58.10;;;;;;4965642;28;96375;-60
2022/09/20 10:20:20;;;;;;;;;;;20.30;58.10;;;;;;4965670;28;95228;-59
2022/09/20 10:23:09;;;;;;;69.65;50.45;;;20.30;58.10;;;;;;4959331;28;96316;-59
2022/09/20 10:25:50;;;;;;;69.97;50.63;;;20.40;58.20;;;;;;4967258;28;96224;-59
2022/09/20 10:28:15;;;;;;;70.95;50.63;;;20.40;58.20;;;;;;4959250;28;95365;-59
2022/09/20 10:31:27;;;;;;;70.68;51.13;;;20.40;58.10;;;;;;4948997;28;98532;-59
2022/09/20 10:34:20;;;;;;;71.03;50.72;;;20.50;58.10;;;;;;4965550;28;95132;-59
2022/09/20 10:36:54;;;;;;;69.65;50.10;;;20.50;57.80;;;;;;4956877;28;95435;-58
2022/09/20 10:39:35;;;;;;;70.10;50.70;;;20.50;57.70;;;;;;4956707;28;100154;-59
2022/09/20 10:43:21;;;;;;;70.20;50.53;;;20.50;58.10;;;;;;4957788;28;94291;-59
2022/09/20 10:45:27;;;;;;;71.72;50.50;;;20.50;57.90;;;;;;4958697;28;95605;-59
2022/09/20 10:47:58;;;;;;;71.40;51.20;;;20.50;58.00;;;;;;4966698;28;95269;-60
2022/09/20 10:50:42;;;;;;;71.57;51.03;;;20.50;58.00;;;;;;4959772;28;100034;-60
2022/09/20 10:53:08;;;;;;;70.32;50.70;;;20.50;57.80;;;;;;4957361;28;95981;-59
2022/09/20 10:56:18;;;;;;;72.05;50.83;;;20.60;57.90;;;;;;4960102;28;95729;-59
2022/09/20 10:59:02;;;;;;;71.07;50.75;;;20.60;57.80;;;;;;4944954;28;95210;-59
2022/09/20 11:01:36;;;;;;;70.38;50.78;;;20.60;57.80;;;;;;4970360;28;95936;-59
2022/09/20 11:04:16;;;;;;;72.45;51.03;;;20.60;57.90;;;;;;4963673;28;95916;-59
2022/09/20 11:07:17;;;;;;;71.30;50.77;;;20.60;57.80;;;;;;4957653;28;97089;-59
2022/09/20 11:10:03;;;;;;;70.13;50.60;;;20.60;57.80;;;;;;4961381;28;97041;-59
2022/09/20 11:12:42;;;;;;;70.78;50.85;;;20.60;57.90;;;;;;4962244;28;95447;-59
2022/09/20 11:15:31;;;;;;;71.22;50.88;;;20.60;57.80;;;;;;4969029;28;95199;-60
2022/09/20 11:17:59;;;;;;;70.40;50.90;;;20.60;57.80;;;;;;4959882;28;99354;-59
2022/09/20 11:20:34;;;;;;;70.10;50.85;;;20.60;57.80;;;;;;4968914;28;94779;-59
2022/09/20 11:23:12;;;;;;;70.10;51.03;;;20.60;57.80;;;;;;4963346;28;97310;-59
2022/09/20 11:25:50;;;;;;;71.43;50.88;;;20.60;57.80;;;;;;4963321;28;97335;-59
2022/09/20 11:28:42;;;;;;;70.40;50.83;;;20.60;57.80;;;;;;4959657;28;95193;-59
2022/09/20 11:31:20;;;;;;;70.00;50.58;;;20.60;57.90;;;;;;4964435;28;97994;-59
2022/09/20 11:34:11;;;;;;;69.97;50.75;;;20.60;57.90;;;;;;4960870;28;95553;-59
2022/09/20 11:37:02;;;;;;;71.78;50.60;;;20.60;58.10;;;;;;4960211;28;97010;-58
2022/09/20 11:39:43;;;;;;;70.13;50.83;;;20.50;58.00;;;;;;4960900;28;98074;-59
2022/09/20 11:42:19;;;;;;;71.18;51.22;;;20.50;58.10;;;;;;4970492;28;96269;-59
2022/09/20 11:44:46;;;;;;;70.22;50.50;;;20.60;58.20;;;;;;4960388;28;100033;-58
2022/09/20 11:47:11;;;;;;;71.00;50.67;;;20.50;58.20;;;;;;4963499;28;95105;-60
2022/09/20 11:49:56;;;;;;;70.80;51.08;;;20.50;58.30;;;;;;4967061;28;94967;-59
2022/09/20 11:52:55;;;;;;;70.55;50.85;;;20.50;58.30;;;;;;4956918;28;96687;-59
2022/09/20 11:55:57;;;;;;;70.57;50.78;;;20.50;58.30;;;;;;4962194;28;97416;-59
2022/09/20 11:58:25;;;;;;;71.00;50.97;;;20.50;58.30;;;;;;4961075;28;94774;-59
2022/09/20 12:00:57;;;;;;;70.00;50.53;;;20.50;58.40;;;;;;4960371;28;97817;-59
2022/09/20 12:03:32;;;;;;;72.00;50.78;;;20.50;58.50;;;;;;4963264;28;97263;-60
2022/09/20 12:06:03;;;;;;;70.10;50.70;;;20.50;58.40;;;;;;4959994;28;95579;-59
2022/09/20 12:08:40;;;;;;;70.32;50.80;;;20.50;58.50;;;;;;4964657;28;95725;-60
2022/09/20 12:11:12;;;;;;;72.25;50.67;;;20.60;58.50;;;;;;4964771;28;96421;-59
2022/09/20 12:13:41;;;;;;;70.85;50.80;;;20.60;58.40;;;;;;4967853;28;97605;-59
2022/09/20 12:16:15;;;;;;;69.90;50.75;;;20.60;58.40;;;;;;4960245;28;95438;-59
2022/09/20 12:19:01;;;;;;;71.50;50.90;;;20.60;58.40;;;;;;4965256;28;95151;-59
2022/09/20 12:21:27;;;;;;;71.70;50.75;;;20.70;58.40;;;;;;4959649;28;94860;-59
2022/09/20 12:23:55;;;;;;;70.60;51.00;;;20.60;58.40;;;;;;4964260;28;95179;-59
2022/09/20 12:26:21;;;;;;;70.47;50.58;;;20.60;58.40;;;;;;4961886;28;96530;-60
2022/09/20 12:28:50;;;;;;;70.70;50.90;;;20.70;58.50;;;;;;4962598;28;94404;-59
2022/09/20 12:31:28;;;;;;;71.30;50.75;;;20.70;58.50;;;;;;4958670;28;99534;-59
2022/09/20 12:34:14;;;;;;;71.78;51.00;;;20.70;58.50;;;;;;4964631;28;95097;-59
2022/09/20 12:36:55;;;;;;;70.35;50.70;;;20.70;58.50;;;;;;4957646;28;98129;-59
2022/09/20 12:39:48;;;;;;;70.53;50.95;;;20.70;58.40;;;;;;4963845;28;97283;-60
2022/09/20 12:42:17;;;;;;;70.88;50.90;;;20.70;58.50;;;;;;4968234;28;95035;-59
2022/09/20 12:44:48;;;;;;;71.55;50.95;;;20.70;58.50;;;;;;4962064;28;95690;-59
2022/09/20 12:47:26;;;;;;;70.88;50.95;;;20.70;58.50;;;;;;4956384;28;95584;-59
2022/09/20 12:52:55;;;;;;;70.28;50.75;;;20.70;58.50;;;;;;4962977;28;95188;-59
2022/09/20 12:55:39;;;;;;;71.13;50.83;;;20.80;58.60;;;;;;4964087;28;94899;-59
2022/09/20 12:58:13;;;;;;;70.72;50.70;;;20.80;58.50;;;;;;4954824;28;96334;-59
2022/09/20 13:00:45;;;;;;;71.40;50.85;;;20.80;58.60;;;;;;4955333;28;96784;-59
2022/09/20 13:03:27;;;;;;;70.60;51.00;;;20.80;58.50;;;;;;4963480;28;96480;-59
2022/09/20 13:06:09;;;;;;;70.70;50.80;;;20.80;58.60;;;;;;4967687;28;96214;-59
2022/09/20 13:08:41;;;;;;;71.20;50.85;;;20.80;58.60;;;;;;4968834;28;97526;-59
2022/09/20 13:11:22;;;;;;;71.03;50.78;;;20.80;58.50;;;;;;4959941;28;95055;-60
2022/09/20 13:13:50;;;;;;;71.22;51.10;;;20.80;58.40;;;;;;4969405;28;94743;-59
2022/09/20 13:16:35;;;;;;;70.95;51.00;;;20.80;58.40;;;;;;4964376;28;95222;-59
2022/09/20 13:19:27;;;;;;;70.57;50.65;;;20.80;58.50;;;;;;4958005;28;96386;-59
2022/09/20 13:21:59;;;;;;;70.97;50.95;;;20.80;58.50;;;;;;4954420;28;95652;-59
2022/09/20 13:24:29;;;;;;;71.55;51.10;;;20.80;58.50;;;;;;4955421;28;97234;-59
2022/09/20 13:27:05;;;;;;;70.55;50.72;;;20.80;58.50;;;;;;4960906;28;95561;-59
2022/09/20 13:29:33;;;;;;;70.70;50.78;;;20.80;59.10;;;;;;4958018;28;97192;-60
2022/09/20 13:32:23;;;;;;;71.10;51.15;;;20.80;58.50;;;;;;4955037;28;96848;-59
2022/09/20 13:35:17;;;;;;;72.20;51.03;;;20.80;58.60;;;;;;4964675;28;95660;-59
2022/09/20 13:38:01;;;;;;;71.57;51.10;;;20.80;58.60;;;;;;4973281;28;94855;-59